Time;durP1;ratioP1;P1;durP2;ratioP2;P2;SDS_P1;SDS_P2;PMS_P1;PMS_P2;Temp;Humidity;BMP_temperature;BMP_pressure;BME280_temperature;BME280_humidity;BME280_pressure;Samples;Min_cycle;Max_cycle;Signal;HPM_P1;HPM_P2
2022/03/27 00:02:26;;;;;;;44.03;24.25;;;;;;;13.60;42.90;102190.59;5097354;28;20052;-61
2022/03/27 00:04:54;;;;;;;47.15;24.10;;;;;;;13.83;42.52;102181.41;5096379;28;20052;-56
2022/03/27 00:07:21;;;;;;;48.17;24.75;;;;;;;13.70;42.70;102181.34;5097197;28;20052;-61
2022/03/27 00:09:48;;;;;;;46.13;23.02;;;;;;;13.81;42.54;102191.97;5097257;28;20040;-56
2022/03/27 00:12:15;;;;;;;45.47;24.38;;;;;;;13.73;42.65;102189.88;5095663;28;20067;-59
2022/03/27 00:14:43;;;;;;;49.05;25.38;;;;;;;13.87;42.64;102187.16;5082874;28;20055;-59
2022/03/27 00:17:10;;;;;;;48.05;25.83;;;;;;;14.09;42.11;102188.19;5076999;28;20055;-59
2022/03/27 00:19:38;;;;;;;55.60;25.05;;;;;;;13.77;42.86;102190.94;5074725;28;20048;-59
2022/03/27 00:22:05;;;;;;;54.95;24.33;;;;;;;13.68;42.86;102200.19;5076555;28;20060;-59
2022/03/27 00:24:32;;;;;;;46.92;25.67;;;;;;;13.79;42.94;102187.84;5076527;28;20052;-56
2022/03/27 00:27:00;;;;;;;47.28;25.00;;;;;;;14.27;41.89;102192.09;5076530;28;20044;-60
2022/03/27 00:29:27;;;;;;;48.53;23.55;;;;;;;13.80;42.53;102193.09;5071936;28;20681;-59
2022/03/27 00:31:55;;;;;;;50.40;24.55;;;;;;;13.90;42.54;102192.09;5056780;28;20476;-58
2022/03/27 00:34:22;;;;;;;48.30;24.55;;;;;;;13.64;43.18;102186.13;5056663;28;20060;-57
2022/03/27 00:36:50;;;;;;;47.35;23.73;;;;;;;13.43;43.52;102191.09;5075105;28;20044;-58
2022/03/27 00:39:17;;;;;;;50.00;25.73;;;;;;;13.73;43.08;102187.09;5075142;28;20440;-58
2022/03/27 00:41:45;;;;;;;45.20;25.13;;;;;;;13.73;43.05;102186.28;5086647;28;20052;-56
2022/03/27 00:44:12;;;;;;;45.92;24.15;;;;;;;13.54;43.32;102184.31;5096612;28;20056;-60
2022/03/27 00:46:39;;;;;;;52.45;25.80;;;;;;;13.55;43.55;102191.50;5095630;28;20056;-59
2022/03/27 00:49:07;;;;;;;52.25;24.52;;;;;;;13.58;43.50;102184.56;5095220;28;20055;-58
2022/03/27 00:51:34;;;;;;;45.80;24.30;;;;;;;13.62;43.43;102182.81;5095103;28;20048;-58
2022/03/27 00:54:04;;;;;;;49.60;25.15;;;;;;;13.46;43.82;102178.59;5096217;28;20055;-58
2022/03/27 00:56:31;;;;;;;51.45;25.42;;;;;;;13.34;44.32;102180.97;5096421;28;20048;-58
2022/03/27 00:58:59;;;;;;;54.85;26.33;;;;;;;13.55;43.75;102180.44;5096187;28;20158;-58
2022/03/27 01:01:35;;;;;;;53.83;25.50;;;;;;;13.44;44.10;102176.13;5096407;28;20102;-60
2022/03/27 01:04:04;;;;;;;46.50;24.70;;;;;;;13.15;44.68;102180.94;5094550;28;20052;-58
2022/03/27 01:06:38;;;;;;;47.97;25.25;;;;;;;13.32;44.60;102174.91;5096041;28;20058;-58
2022/03/27 01:11:54;;;;;;;57.83;25.80;;;;;;;13.14;44.88;102176.53;5096088;28;20047;-57
2022/03/27 01:14:32;;;;;;;46.67;26.60;;;;;;;13.18;44.87;102165.72;5084920;28;20059;-58
2022/03/27 01:17:07;;;;;;;49.70;26.00;;;;;;;13.06;45.05;102170.81;5075870;28;20440;-58
2022/03/27 01:19:50;;;;;;;51.67;25.70;;;;;;;13.12;45.12;102177.94;5074476;28;20431;-57
2022/03/27 01:22:19;;;;;;;49.80;27.15;;;;;;;12.85;45.77;102167.44;5075497;28;20059;-59
2022/03/27 01:24:49;;;;;;;55.47;26.48;;;;;;;13.06;45.43;102168.03;5075273;28;20056;-59
2022/03/27 01:27:17;;;;;;;56.53;26.50;;;;;;;12.96;45.75;102168.97;5075515;28;20056;-57
2022/03/27 01:29:44;;;;;;;58.13;26.85;;;;;;;12.90;45.76;102167.38;5054405;28;20056;-59
2022/03/27 01:32:14;;;;;;;47.78;26.50;;;;;;;13.02;45.85;102165.03;5073326;28;20415;-58
2022/03/27 01:34:44;;;;;;;53.10;26.80;;;;;;;12.85;46.28;102167.44;5075071;28;20044;-57
2022/03/27 01:37:14;;;;;;;51.85;26.00;;;;;;;13.00;45.82;102160.91;5075017;28;20487;-58
2022/03/27 01:39:42;;;;;;;52.38;26.85;;;;;;;12.92;45.98;102162.38;5073919;28;20040;-58
2022/03/27 01:42:09;;;;;;;49.78;26.45;;;;;;;13.03;45.85;102157.56;5088993;28;20063;-57
2022/03/27 01:44:37;;;;;;;47.20;26.63;;;;;;;12.62;46.79;102159.97;5095279;28;20064;-57
2022/03/27 01:47:04;;;;;;;49.22;25.73;;;;;;;12.78;46.46;102152.31;5094561;28;20052;-57
2022/03/27 01:49:32;;;;;;;46.22;26.58;;;;;;;13.15;45.96;102153.28;5083285;28;20055;-57
2022/03/27 01:51:59;;;;;;;56.92;27.77;;;;;;;13.08;45.78;102143.69;5074211;28;20060;-58
2022/03/27 01:54:27;;;;;;;47.15;26.23;;;;;;;13.12;45.84;102140.03;5074971;28;20059;-55
2022/03/27 01:56:54;;;;;;;57.42;26.95;;;;;;;12.99;46.22;102145.44;5075026;28;20048;-56
2022/03/27 01:59:22;;;;;;;52.13;27.05;;;;;;;12.70;46.91;102141.88;5075158;28;20056;-59
2022/03/27 02:01:49;;;;;;;55.92;26.50;;;;;;;12.98;46.52;102143.78;5075211;28;20048;-58
2022/03/27 02:04:17;;;;;;;51.75;26.98;;;;;;;13.05;46.21;102147.88;5074754;28;20044;-59
2022/03/27 02:06:45;;;;;;;51.67;26.10;;;;;;;12.93;46.48;102141.91;5074696;28;20048;-57
2022/03/27 02:09:12;;;;;;;51.78;27.15;;;;;;;12.66;47.23;102143.59;5073995;28;20052;-59
2022/03/27 02:11:41;;;;;;;54.58;27.23;;;;;;;12.58;47.79;102144.22;5075076;28;20044;-59
2022/03/27 02:14:09;;;;;;;58.83;27.45;;;;;;;12.77;47.13;102143.19;5074460;28;20052;-56
2022/03/27 02:16:37;;;;;;;50.90;26.88;;;;;;;12.97;46.85;102142.94;5074865;28;20055;-58
2022/03/27 02:19:09;;;;;;;56.15;26.75;;;;;;;12.70;47.77;102136.34;5073380;28;20053;-58
2022/03/27 02:21:38;;;;;;;52.85;27.35;;;;;;;12.67;47.71;102137.78;5073499;28;20040;-60
2022/03/27 02:24:06;;;;;;;49.17;28.27;;;;;;;12.58;47.99;102131.25;5073986;28;20052;-57
2022/03/27 02:26:34;;;;;;;56.08;27.83;;;;;;;12.26;48.81;102140.13;5073131;28;20067;-59
2022/03/27 02:29:01;;;;;;;49.90;26.48;;;;;;;12.43;48.63;102139.66;5074817;28;20045;-58
2022/03/27 02:31:29;;;;;;;49.80;27.15;;;;;;;12.45;48.63;102143.81;5073423;28;20052;-58
2022/03/27 02:33:56;;;;;;;50.70;25.98;;;;;;;12.70;48.02;102141.88;5074412;28;20049;-60
2022/03/27 02:36:23;;;;;;;53.25;28.13;;;;;;;12.37;49.04;102136.16;5073143;28;20545;-58
2022/03/27 02:38:51;;;;;;;52.92;27.33;;;;;;;12.19;49.29;102145.16;5072876;28;20052;-61
2022/03/27 02:41:18;;;;;;;49.72;26.20;;;;;;;12.28;49.50;102148.94;5081349;28;20036;-57
2022/03/27 02:43:45;;;;;;;54.67;26.60;;;;;;;12.38;49.29;102146.06;5094699;28;20051;-56
2022/03/27 02:46:13;;;;;;;48.05;25.63;;;;;;;12.21;49.85;102150.38;5094705;28;20078;-62
2022/03/27 02:48:40;;;;;;;58.05;26.75;;;;;;;12.32;49.47;102147.25;5096212;28;20055;-58
2022/03/27 02:51:08;;;;;;;48.55;26.38;;;;;;;12.35;49.52;102140.31;5098666;28;20403;-56
2022/03/27 02:53:35;;;;;;;46.70;25.67;;;;;;;12.23;49.58;102148.16;5097498;28;20055;-58
2022/03/27 02:56:06;;;;;;;47.42;26.77;;;;;;;12.34;49.44;102146.97;5098849;28;20059;-59
2022/03/27 02:58:34;;;;;;;57.63;28.27;;;;;;;12.31;49.52;102145.59;5097609;28;20063;-59
2022/03/27 03:01:02;;;;;;;48.85;26.10;;;;;;;12.30;49.44;102146.72;5098972;28;20051;-56
2022/03/27 03:03:31;;;;;;;51.17;26.55;;;;;;;12.64;48.85;102141.09;5097321;28;20052;-57
2022/03/27 03:05:59;;;;;;;56.95;27.33;;;;;;;12.59;48.75;102149.47;5097170;28;20056;-59
2022/03/27 03:08:27;;;;;;;47.15;26.73;;;;;;;12.71;48.55;102143.56;5097342;28;20047;-58
2022/03/27 03:10:56;;;;;;;46.42;25.83;;;;;;;12.72;48.34;102136.91;5097530;28;20536;-56
2022/03/27 03:13:24;;;;;;;41.00;24.93;;;;;;;12.80;48.17;102136.25;5095437;28;20432;-60
2022/03/27 03:15:51;;;;;;;42.58;25.38;;;;;;;12.50;49.05;102145.69;5078143;28;20063;-57
2022/03/27 03:18:19;;;;;;;46.92;24.80;;;;;;;12.57;48.94;102148.13;5077985;28;20063;-60
2022/03/27 03:20:46;;;;;;;45.67;25.27;;;;;;;12.20;49.84;102152.31;5076795;28;20433;-56
2022/03/27 03:23:14;;;;;;;48.35;25.65;;;;;;;12.03;50.61;102148.34;5077928;28;20049;-57
2022/03/27 03:25:42;;;;;;;47.85;24.88;;;;;;;12.12;50.12;102146.59;5078073;28;20052;-59
2022/03/27 03:28:30;;;;;;;44.80;24.67;;;;;;;12.18;50.08;102140.75;5078120;28;20052;-57
2022/03/27 03:30:58;;;;;;;42.35;24.15;;;;;;;11.98;50.64;102151.13;5078109;28;20045;-59
2022/03/27 03:33:26;;;;;;;46.03;24.40;;;;;;;12.09;50.75;102152.69;5077384;28;20061;-58
2022/03/27 03:35:54;;;;;;;39.28;23.65;;;;;;;12.00;50.64;102146.97;5077497;28;20055;-59
2022/03/27 03:38:21;;;;;;;42.28;23.98;;;;;;;11.90;51.21;102144.28;5077814;28;20063;-59
2022/03/27 03:40:49;;;;;;;42.83;24.40;;;;;;;12.08;50.97;102145.53;5076524;28;20048;-59
2022/03/27 03:43:19;;;;;;;43.88;23.42;;;;;;;12.05;50.62;102149.69;5077533;28;20068;-60
2022/03/27 03:45:47;;;;;;;39.35;23.55;;;;;;;12.21;50.54;102144.84;5077424;28;20488;-59
2022/03/27 03:48:14;;;;;;;41.78;24.67;;;;;;;12.24;50.51;102142.34;5076664;28;20064;-57
2022/03/27 03:50:42;;;;;;;42.10;22.90;;;;;;;12.32;50.32;102143.66;5077424;28;20078;-59
2022/03/27 03:53:09;;;;;;;44.17;22.45;;;;;;;11.99;51.06;102152.78;5077595;28;20519;-57
2022/03/27 03:55:38;;;;;;;45.85;22.98;;;;;;;12.24;50.68;102153.38;5077174;28;20052;-61
2022/03/27 03:58:06;;;;;;;41.63;22.85;;;;;;;12.17;50.67;102149.31;5077438;28;20044;-58
2022/03/27 04:00:33;;;;;;;40.92;23.80;;;;;;;12.20;50.71;102149.53;5075955;28;20063;-56
2022/03/27 04:03:01;;;;;;;40.53;22.38;;;;;;;12.24;50.49;102142.34;5075497;28;20056;-57
2022/03/27 04:05:29;;;;;;;42.13;23.60;;;;;;;12.04;51.05;102147.22;5076650;28;20510;-59
2022/03/27 04:07:56;;;;;;;42.97;23.00;;;;;;;12.03;51.09;102143.63;5077318;28;20056;-60
2022/03/27 04:10:24;;;;;;;37.88;21.42;;;;;;;12.14;51.10;102141.59;5077122;28;20049;-58
2022/03/27 04:12:51;;;;;;;38.92;21.38;;;;;;;12.08;50.76;102140.81;5058986;28;20079;-59
2022/03/27 04:15:18;;;;;;;40.50;22.27;;;;;;;12.09;51.13;102153.53;5076921;28;20147;-62
2022/03/27 04:17:48;;;;;;;39.90;21.00;;;;;;;11.96;51.28;102151.41;5076826;28;20049;-58
2022/03/27 04:20:16;;;;;;;37.85;21.55;;;;;;;11.79;51.87;102144.63;5076804;28;20053;-60
2022/03/27 04:22:45;;;;;;;37.60;21.48;;;;;;;11.58;52.38;102149.44;5076935;28;20052;-58
2022/03/27 04:25:15;;;;;;;38.40;21.05;;;;;;;11.65;52.38;102154.66;5076660;28;20048;-57
2022/03/27 04:27:42;;;;;;;35.85;21.38;;;;;;;11.68;52.38;102154.13;5075646;28;20060;-59
2022/03/27 04:30:11;;;;;;;40.90;21.83;;;;;;;11.62;52.52;102156.03;5076644;28;20057;-58
2022/03/27 04:32:39;;;;;;;38.05;21.80;;;;;;;11.41;52.96;102159.19;5058191;28;20048;-54
2022/03/27 04:35:08;;;;;;;42.53;21.63;;;;;;;11.54;52.87;102161.34;5076345;28;20044;-60
2022/03/27 04:37:42;;;;;;;38.60;22.35;;;;;;;11.49;52.79;102161.38;5076742;28;20495;-58
2022/03/27 04:40:13;;;;;;;37.97;20.83;;;;;;;11.69;52.46;102162.09;5076826;28;20056;-57
2022/03/27 04:42:41;;;;;;;39.28;20.85;;;;;;;11.93;51.55;102164.97;5094154;28;20052;-58
2022/03/27 04:45:10;;;;;;;38.22;20.20;;;;;;;12.11;51.07;102158.75;5095274;28;20056;-59
2022/03/27 04:47:39;;;;;;;41.38;21.15;;;;;;;11.65;52.27;102160.19;5095379;28;20059;-59
2022/03/27 04:50:08;;;;;;;49.55;21.77;;;;;;;11.99;51.79;102161.06;5096421;28;20040;-60
2022/03/27 04:52:37;;;;;;;38.22;20.98;;;;;;;12.07;51.24;102157.69;5094874;28;20059;-60
2022/03/27 04:55:05;;;;;;;38.08;20.15;;;;;;;12.09;51.20;102163.75;5095102;28;20047;-59
2022/03/27 04:57:39;;;;;;;36.95;20.73;;;;;;;11.75;52.06;102165.66;5094751;28;20051;-58
2022/03/27 05:00:11;;;;;;;35.53;20.50;;;;;;;11.64;52.30;102162.13;5094864;28;20052;-55
2022/03/27 05:02:40;;;;;;;36.83;20.55;;;;;;;11.81;51.82;102164.50;5095051;28;20040;-58
2022/03/27 05:05:10;;;;;;;38.00;19.45;;;;;;;11.60;52.43;102163.78;5095866;28;20059;-57
2022/03/27 05:07:39;;;;;;;31.80;19.00;;;;;;;11.81;51.89;102170.03;5096302;28;20055;-60
2022/03/27 05:10:07;;;;;;;35.10;20.10;;;;;;;11.77;52.18;102166.22;5096265;28;20051;-61
2022/03/27 05:12:35;;;;;;;33.15;19.27;;;;;;;11.60;52.72;102173.97;5095535;28;20487;-57
2022/03/27 05:15:03;;;;;;;33.83;20.20;;;;;;;11.69;52.17;102175.06;5078988;28;20267;-56
2022/03/27 05:17:30;;;;;;;35.17;19.88;;;;;;;11.59;52.56;102177.88;5073879;28;20056;-59
2022/03/27 05:19:57;;;;;;;35.22;19.75;;;;;;;11.55;53.10;102191.41;5075862;28;20053;-61
2022/03/27 05:22:25;;;;;;;29.90;19.85;;;;;;;11.65;52.81;102177.56;5075713;28;20046;-61
2022/03/27 05:24:52;;;;;;;32.80;19.48;;;;;;;11.63;52.61;102181.72;5074618;28;20407;-62
2022/03/27 05:27:20;;;;;;;36.60;19.83;;;;;;;11.42;53.32;102185.69;5075944;28;20049;-61
2022/03/27 05:29:47;;;;;;;34.78;19.98;;;;;;;11.48;53.22;102190.88;5073773;28;20055;-61
2022/03/27 05:32:14;;;;;;;40.63;20.60;;;;;;;11.35;53.56;102186.81;5075715;28;20158;-62
2022/03/27 05:34:42;;;;;;;33.38;19.85;;;;;;;11.26;53.89;102188.50;5075296;28;20055;-62
2022/03/27 05:37:09;;;;;;;33.45;20.10;;;;;;;11.49;53.16;102191.72;5075114;28;20048;-62
2022/03/27 05:39:36;;;;;;;38.28;20.45;;;;;;;11.68;52.75;102185.28;5074248;28;20389;-61
2022/03/27 05:42:04;;;;;;;34.15;19.92;;;;;;;11.58;52.79;102193.59;5086882;28;20055;-61
2022/03/27 05:44:31;;;;;;;37.20;20.92;;;;;;;11.80;52.33;102182.19;5095338;28;20052;-62
2022/03/27 05:46:58;;;;;;;35.85;18.73;;;;;;;11.69;52.47;102189.72;5095503;28;20055;-62
2022/03/27 05:49:26;;;;;;;35.88;18.48;;;;;;;11.50;53.42;102191.44;5095338;28;20503;-62
2022/03/27 05:51:53;;;;;;;33.17;19.23;;;;;;;11.75;52.56;102190.50;5095334;28;20052;-62
2022/03/27 05:54:21;;;;;;;35.15;19.67;;;;;;;11.51;53.29;102190.31;5094969;28;20456;-62
2022/03/27 05:56:48;;;;;;;35.78;19.92;;;;;;;11.22;54.02;102198.47;5095237;28;20051;-61
2022/03/27 05:59:16;;;;;;;31.02;19.42;;;;;;;11.28;54.00;102191.81;5095313;28;20048;-62
2022/03/27 06:01:44;;;;;;;33.17;20.20;;;;;;;11.07;54.61;102192.97;5095334;28;20055;-62
2022/03/27 06:04:11;;;;;;;39.28;20.17;;;;;;;11.25;54.31;102199.81;5095285;28;20060;-61
2022/03/27 06:06:39;;;;;;;31.88;18.70;;;;;;;11.52;53.35;102205.78;5094974;28;20052;-61
2022/03/27 06:09:06;;;;;;;35.92;19.08;;;;;;;11.30;54.04;102197.03;5095520;28;20040;-62
2022/03/27 06:11:34;;;;;;;36.33;19.98;;;;;;;11.28;54.23;102210.28;5095222;28;20059;-61
2022/03/27 06:14:01;;;;;;;37.92;20.92;;;;;;;11.25;54.35;102211.69;5069063;28;20048;-63
2022/03/27 06:16:28;;;;;;;41.50;20.88;;;;;;;11.22;54.30;102208.66;5073647;28;20055;-62
2022/03/27 06:18:56;;;;;;;31.08;19.08;;;;;;;11.52;53.58;102216.81;5074923;28;20045;-62
2022/03/27 06:21:23;;;;;;;36.95;18.77;;;;;;;11.29;54.23;102212.78;5073502;28;20411;-61
2022/03/27 06:23:50;;;;;;;34.58;19.20;;;;;;;11.47;53.77;102207.72;5076904;28;20492;-61
2022/03/27 06:26:18;;;;;;;34.42;19.38;;;;;;;11.64;53.33;102206.31;5078011;28;20059;-62
2022/03/27 06:28:45;;;;;;;36.08;19.77;;;;;;;11.71;52.64;102212.34;5079055;28;20048;-61
2022/03/27 06:31:13;;;;;;;32.05;19.50;;;;;;;11.15;54.37;102211.72;5077155;28;20066;-62
2022/03/27 06:33:40;;;;;;;35.83;20.67;;;;;;;10.96;55.27;102220.88;5077691;28;20431;-62
2022/03/27 06:36:07;;;;;;;32.78;19.42;;;;;;;11.17;54.82;102216.97;5078220;28;20057;-61
2022/03/27 06:38:35;;;;;;;34.72;19.30;;;;;;;11.21;54.62;102215.25;5078719;28;20056;-62
2022/03/27 06:41:03;;;;;;;36.22;21.23;;;;;;;11.22;54.57;102217.78;5083040;28;20060;-61
2022/03/27 06:43:30;;;;;;;33.15;20.77;;;;;;;11.18;54.70;102221.34;5099358;28;20063;-61
2022/03/27 06:45:58;;;;;;;38.83;20.38;;;;;;;11.29;54.46;102223.81;5097290;28;20063;-62
2022/03/27 06:48:25;;;;;;;30.08;20.13;;;;;;;11.38;54.05;102218.53;5098843;28;20055;-61
2022/03/27 06:50:52;;;;;;;33.97;20.25;;;;;;;11.46;54.07;102219.88;5098700;28;20052;-62
2022/03/27 06:53:24;;;;;;;32.05;20.17;;;;;;;11.41;53.76;102217.97;5098921;28;20047;-62
2022/03/27 06:55:51;;;;;;;34.05;20.15;;;;;;;11.33;54.26;102221.31;5096997;28;20126;-62
2022/03/27 06:58:19;;;;;;;33.75;19.67;;;;;;;11.59;53.62;102220.09;5098700;28;20048;-62
2022/03/27 07:03:32;;;;;;;42.53;19.83;;;;;;;11.47;53.55;102225.13;5098632;28;20040;-61
2022/03/27 07:05:59;;;;;;;34.08;20.90;;;;;;;10.99;55.01;102212.88;5096682;28;20044;-62
2022/03/27 07:08:27;;;;;;;33.83;20.90;;;;;;;11.21;54.76;102224.38;5097128;28;20055;-64
2022/03/27 07:10:55;;;;;;;33.25;20.90;;;;;;;11.29;54.44;102229.34;5097476;28;20044;-62
2022/03/27 07:13:23;;;;;;;32.03;19.95;;;;;;;11.32;53.85;102220.47;5095865;28;20048;-62
2022/03/27 07:15:50;;;;;;;31.42;19.98;;;;;;;11.24;54.00;102221.03;5076627;28;20044;-63
2022/03/27 07:18:18;;;;;;;36.75;20.30;;;;;;;11.26;54.29;102220.78;5077822;28;20052;-62
2022/03/27 07:20:46;;;;;;;31.65;19.50;;;;;;;11.54;53.61;102220.09;5076489;28;20048;-62
2022/03/27 07:23:15;;;;;;;34.25;20.38;;;;;;;11.52;53.60;102224.25;5077734;28;20049;-62
2022/03/27 07:25:45;;;;;;;35.97;20.70;;;;;;;11.87;52.65;102222.16;5075856;28;20526;-61
2022/03/27 07:28:13;;;;;;;32.95;20.92;;;;;;;11.54;53.31;102222.06;5060045;28;20052;-62
2022/03/27 07:30:42;;;;;;;39.65;21.27;;;;;;;11.45;53.72;102227.34;5076322;28;20415;-61
2022/03/27 07:33:09;;;;;;;31.77;19.67;;;;;;;11.63;53.32;102231.41;5076571;28;20055;-60
2022/03/27 07:35:37;;;;;;;30.88;19.50;;;;;;;11.64;52.92;102238.56;5077127;28;20056;-62
2022/03/27 07:38:05;;;;;;;31.15;19.52;;;;;;;11.64;52.85;102233.91;5076212;28;20064;-61
2022/03/27 07:40:33;;;;;;;36.67;19.42;;;;;;;11.72;52.78;102232.47;5077933;28;20055;-61
2022/03/27 07:43:00;;;;;;;35.17;20.45;;;;;;;11.80;52.29;102231.88;5095969;28;20048;-62
2022/03/27 07:45:30;;;;;;;37.03;20.52;;;;;;;11.52;53.05;102230.63;5095724;28;20447;-60
2022/03/27 07:47:58;;;;;;;30.38;20.83;;;;;;;11.65;52.88;102238.28;5095923;28;20067;-64
2022/03/27 07:50:27;;;;;;;33.55;18.95;;;;;;;11.82;52.26;102237.94;5097543;28;20056;-61
2022/03/27 07:52:54;;;;;;;37.15;20.40;;;;;;;11.90;52.43;102231.81;5097661;28;20499;-61
2022/03/27 07:55:22;;;;;;;34.47;20.63;;;;;;;11.64;52.73;102244.06;5097576;28;20056;-63
2022/03/27 07:57:55;;;;;;;32.35;19.40;;;;;;;11.88;52.08;102223.00;5097744;28;20060;-63
2022/03/27 08:00:23;;;;;;;33.58;19.25;;;;;;;11.89;52.11;102230.19;5097784;28;20051;-62
2022/03/27 08:02:51;;;;;;;33.53;19.33;;;;;;;11.74;52.20;102241.28;5097543;28;20040;-55
2022/03/27 08:05:21;;;;;;;35.38;19.92;;;;;;;11.77;52.17;102240.75;5097112;28;20055;-58
2022/03/27 08:07:49;;;;;;;31.05;19.77;;;;;;;11.75;52.16;102231.91;5096297;28;20052;-56
2022/03/27 08:10:17;;;;;;;36.75;19.80;;;;;;;12.10;51.42;102232.50;5097395;28;20395;-58
2022/03/27 08:12:45;;;;;;;36.35;21.15;;;;;;;12.17;51.28;102233.00;5097467;28;20063;-58
2022/03/27 08:15:12;;;;;;;33.60;20.80;;;;;;;11.94;51.70;102232.91;5079273;28;20052;-60
2022/03/27 08:17:46;;;;;;;34.15;19.83;;;;;;;11.93;51.68;102228.47;5076637;28;20044;-59
2022/03/27 08:20:13;;;;;;;35.28;20.05;;;;;;;11.96;51.65;102236.22;5076713;28;20057;-58
2022/03/27 08:22:41;;;;;;;30.98;20.35;;;;;;;12.01;51.83;102233.41;5076890;28;20044;-60
2022/03/27 08:25:09;;;;;;;34.97;21.20;;;;;;;12.14;51.27;102243.81;5076979;28;20064;-58
2022/03/27 08:27:37;;;;;;;35.83;20.33;;;;;;;12.14;51.18;102238.28;5076722;28;20051;-61
2022/03/27 08:30:06;;;;;;;40.00;20.08;;;;;;;12.52;50.32;102233.84;5076595;28;20055;-57
2022/03/27 08:32:34;;;;;;;36.35;20.63;;;;;;;12.61;50.12;102238.47;5076063;28;20403;-58
2022/03/27 08:35:07;;;;;;;40.30;20.42;;;;;;;12.56;50.16;102238.50;5076294;28;20044;-59
2022/03/27 08:37:35;;;;;;;32.28;21.23;;;;;;;12.61;50.15;102224.63;5073939;28;20053;-59
2022/03/27 08:40:03;;;;;;;37.42;21.17;;;;;;;12.93;49.36;102229.59;5076454;28;20059;-59
2022/03/27 08:42:30;;;;;;;40.90;21.13;;;;;;;12.44;49.89;102232.53;5090851;28;20060;-58
2022/03/27 08:44:58;;;;;;;31.65;19.83;;;;;;;12.72;49.50;102228.97;5095597;28;20073;-60
2022/03/27 08:47:27;;;;;;;31.63;19.92;;;;;;;12.91;48.52;102229.03;5095283;28;20407;-57
2022/03/27 08:50:13;;;;;;;34.63;19.42;;;;;;;12.99;48.42;102223.69;5061693;28;20060;-59
2022/03/27 08:52:48;;;;;;;32.08;19.75;;;;;;;13.13;47.61;102232.97;5095229;28;20075;-57
2022/03/27 08:55:19;;;;;;;32.60;19.63;;;;;;;13.02;47.62;102231.44;5096119;28;20491;-54
2022/03/27 08:57:56;;;;;;;39.92;19.25;;;;;;;12.97;47.58;102234.22;5095644;28;20059;-59
2022/03/27 09:00:29;;;;;;;33.53;19.85;;;;;;;13.02;47.66;102228.66;5095112;28;20056;-57
2022/03/27 09:02:58;;;;;;;34.88;19.40;;;;;;;13.30;47.47;102232.53;5096233;28;20055;-59
2022/03/27 09:05:26;;;;;;;32.33;19.98;;;;;;;13.38;47.15;102229.09;5096055;28;20063;-58
2022/03/27 09:07:55;;;;;;;34.30;19.65;;;;;;;13.73;46.07;102230.56;5095405;28;20066;-59
2022/03/27 09:10:25;;;;;;;34.25;19.20;;;;;;;13.80;45.74;102237.41;5096257;28;20055;-59
2022/03/27 09:12:53;;;;;;;31.00;19.30;;;;;;;13.82;45.79;102243.47;5094924;28;20497;-59
2022/03/27 09:15:21;;;;;;;34.38;19.27;;;;;;;13.65;45.14;102242.31;5074796;28;20048;-57
2022/03/27 09:18:13;;;;;;;31.85;17.77;;;;;;;13.63;45.29;102239.03;5075418;28;20083;-58
2022/03/27 09:20:51;;;;;;;35.65;19.20;;;;;;;13.64;45.24;102240.66;5057976;28;20057;-57
2022/03/27 09:23:24;;;;;;;36.83;19.15;;;;;;;13.72;44.85;102242.78;5074652;28;20045;-56
2022/03/27 09:25:56;;;;;;;33.92;19.20;;;;;;;13.87;44.79;102242.56;5075398;28;20460;-60
2022/03/27 09:28:29;;;;;;;37.25;18.92;;;;;;;13.91;44.12;102238.09;5075542;28;20059;-60
2022/03/27 09:31:03;;;;;;;32.63;18.95;;;;;;;13.98;44.33;102233.81;5075580;28;20079;-61
2022/03/27 09:33:35;;;;;;;32.85;18.25;;;;;;;14.08;44.26;102230.91;5074266;28;20071;-57
2022/03/27 09:36:08;;;;;;;36.55;18.38;;;;;;;14.12;44.05;102240.25;5075215;28;20056;-60
2022/03/27 09:38:37;;;;;;;34.80;19.23;;;;;;;14.35;43.71;102230.22;5075382;28;20055;-60
2022/03/27 09:41:05;;;;;;;36.00;19.10;;;;;;;14.29;43.79;102234.22;5079976;28;20051;-59
2022/03/27 09:43:33;;;;;;;34.15;19.33;;;;;;;14.33;43.61;102240.81;5095505;28;20074;-57
2022/03/27 09:46:03;;;;;;;31.05;19.52;;;;;;;14.43;42.96;102233.16;5095252;28;20064;-58
2022/03/27 09:48:32;;;;;;;38.78;19.90;;;;;;;14.49;43.28;102231.09;5095209;28;20418;-58
2022/03/27 09:51:00;;;;;;;35.15;19.00;;;;;;;14.47;43.06;102234.16;5095365;28;20056;-56
2022/03/27 09:53:30;;;;;;;35.55;19.67;;;;;;;14.56;42.88;102232.34;5077402;28;20043;-58
2022/03/27 09:55:57;;;;;;;37.33;18.70;;;;;;;14.88;42.58;102227.91;5095525;28;20523;-58
2022/03/27 09:58:34;;;;;;;34.03;19.63;;;;;;;14.84;42.45;102224.09;5095161;28;20052;-57
2022/03/27 10:01:16;;;;;;;39.15;19.33;;;;;;;14.79;42.43;102225.03;5095440;28;20055;-61
2022/03/27 10:04:04;;;;;;;30.02;19.88;;;;;;;14.88;42.65;102234.28;5095193;28;20055;-59
2022/03/27 10:06:39;;;;;;;33.92;19.17;;;;;;;14.99;42.10;102232.16;5094877;28;20047;-61
2022/03/27 10:09:08;;;;;;;33.45;19.55;;;;;;;14.68;43.02;102226.31;5095273;28;20466;-59
2022/03/27 10:11:37;;;;;;;31.67;18.98;;;;;;;15.00;42.61;102217.97;5095132;28;20052;-58
2022/03/27 10:14:06;;;;;;;31.10;19.20;;;;;;;15.20;42.06;102225.09;5086397;28;20048;-59
2022/03/27 10:16:37;;;;;;;31.80;19.08;;;;;;;15.39;41.88;102214.69;5074640;28;20048;-59
2022/03/27 10:19:12;;;;;;;34.40;19.45;;;;;;;15.02;42.35;102223.22;5074799;28;20049;-59
2022/03/27 10:21:43;;;;;;;34.78;20.17;;;;;;;14.93;42.61;102213.94;5073583;28;20059;-57
2022/03/27 10:24:16;;;;;;;37.55;20.52;;;;;;;15.15;42.11;102212.13;5074741;28;20052;-57
2022/03/27 10:26:44;;;;;;;32.83;20.10;;;;;;;15.05;42.14;102217.03;5056900;28;20070;-57
2022/03/27 10:29:13;;;;;;;36.78;20.17;;;;;;;15.01;42.78;102211.28;5073600;28;20048;-58
2022/03/27 10:31:41;;;;;;;33.38;20.65;;;;;;;14.93;42.96;102206.44;5073658;28;20059;-56
2022/03/27 10:34:11;;;;;;;33.15;20.60;;;;;;;15.10;42.89;102197.53;5074469;28;20074;-59
2022/03/27 10:36:47;;;;;;;43.13;20.67;;;;;;;14.90;42.68;102197.91;5073198;28;20055;-54
2022/03/27 10:39:30;;;;;;;35.17;19.38;;;;;;;15.20;42.46;102197.31;5074913;28;20049;-59
2022/03/27 10:42:21;;;;;;;31.40;20.23;;;;;;;15.32;41.94;102190.13;5068083;28;20052;-60
2022/03/27 10:44:53;;;;;;;37.53;21.60;;;;;;;15.23;41.90;102185.59;5094718;28;20524;-61
2022/03/27 10:47:22;;;;;;;33.88;20.15;;;;;;;15.39;41.32;102182.22;5094609;28;20048;-57
2022/03/27 10:50:01;;;;;;;30.65;20.05;;;;;;;15.69;41.26;102183.53;5092678;28;20056;-55
2022/03/27 10:52:30;;;;;;;47.08;20.67;;;;;;;15.58;41.26;102180.16;5094673;28;20059;-57
2022/03/27 10:54:59;;;;;;;32.17;20.02;;;;;;;15.97;40.87;102173.16;5094820;28;20040;-59
2022/03/27 10:57:35;;;;;;;38.40;21.35;;;;;;;15.67;41.32;102169.94;5093313;28;20052;-57
2022/03/27 11:00:04;;;;;;;36.72;19.98;;;;;;;15.85;41.04;102164.56;5094745;28;20434;-57
2022/03/27 11:02:53;;;;;;;33.53;20.30;;;;;;;16.18;40.32;102165.97;5094880;28;20047;-57
2022/03/27 11:05:35;;;;;;;33.17;20.10;;;;;;;16.18;39.44;102169.56;5094557;28;20055;-59
2022/03/27 11:08:17;;;;;;;36.20;21.10;;;;;;;16.08;39.93;102158.69;5094527;28;20384;-61
2022/03/27 11:10:55;;;;;;;35.17;20.23;;;;;;;16.28;39.55;102152.63;5097988;28;20052;-58
2022/03/27 11:13:26;;;;;;;35.88;20.38;;;;;;;16.41;39.42;102153.66;5095796;28;20048;-58
2022/03/27 11:16:03;;;;;;;36.63;20.88;;;;;;;16.14;39.32;102157.44;5078116;28;20048;-55
2022/03/27 11:18:58;;;;;;;37.35;20.45;;;;;;;16.03;38.90;102150.47;5077773;28;20045;-59
2022/03/27 11:21:26;;;;;;;35.47;21.27;;;;;;;16.30;38.93;102143.97;5076236;28;20068;-58
2022/03/27 11:24:03;;;;;;;42.67;21.65;;;;;;;16.46;38.16;102142.41;5076086;28;20056;-59
2022/03/27 11:26:30;;;;;;;38.95;21.77;;;;;;;16.62;38.09;102138.13;5078005;28;20055;-58